ΕΜΥ, Εθνική Μετεωρολογική Υπηρεσία - Δελτία Καιρού, Προγνώσεις

ΑΕΡΟΝΑΥΤΙΛΙΑ

GREEK AIRPORTS CODES

LGHI 160350Z 00000KT 9999 FEW010 18/17 Q1014=

EUROPEAN AIRPORTS CODES

LFPO 160330Z 19010KT 160V220 3500 -RA SCT005 BKN009 BKN02612/11 Q1011 TEMPO 4000 RA BKN012=